Aeroporto :
LOGIN :

Iscrizione | Disclaimer

   EN    FR    IT 

 










Sommario :    VFR   VFR Marginale   IFR   IFR Intensivo   IFR Molto Intensivo
Visibilità : 
Base nubi : 
>= 8 km
>= 3000ft
5 / 8 km
1000 / 3000 ft
1500m / 5 km
500 / 1000 ft
800 / 1500m
200 / 500 ft
< 800m
< 200 ft
Simboli :   Temporali  Nebbia  Neve Forte  Precipitazioni Forti  Vento > 20 kt
SIGMETs :   Varie  Temporali  Ghiacco  Turbolenza  Onda orograficha  Ceneri Vulcaniche






- Altitudine del aeroporto : 0 ft


ENQA - Troll A Platform

ULTIMO METAR :
  • 251250Z AUTO 12010KT 9999NDV NCD 04/M05 Q0990 W05/S4

METARs OBSOLETI :
  • 251220Z AUTO 12010KT 9999NDV NCD 04/M05 Q0990 W05/S4
  • 251150Z AUTO 14009KT 9999NDV NCD 05/M06 Q0990 W05/S4
  • 251120Z AUTO 13008KT 090V150 9999NDV NCD 04/M05 Q0990 W05/S4
  • 251050Z AUTO 13007KT 9999NDV NCD 04/M05 Q0990 W04/S4
  • 251020Z AUTO 13008KT 9999NDV NCD 04/M06 Q0990 W04/S4

TAF N/A



MetMap, La meteo Aeronautica in un colpo d'occhio ! - Copyright ORBIFLY Dicembre 2007 - Disclaimer

ORBIFLY MET'MAP TEAM :

Programmazione e sviluppo : Alexandra Zaïnal
Concezione : Baudouin d'Aumeries
Aiuto per la programmazione : Marc-Olivier Méhu
Supporto tecnico e logistico : Manuel Goepfert
Aiuto per la traduzione : Arnaldo La Scala

Contatto : metmap@orbifly.com




FONTI E CREDITI :

   NOAA